createdAt,value
2023-05-05T00:00:21.345Z,3.23
2023-05-05T00:01:21.421Z,3.24
2023-05-05T00:02:21.485Z,3.25
2023-05-05T00:03:21.520Z,3.24
2023-05-05T00:04:21.586Z,3.18
2023-05-05T00:05:21.579Z,3.20
2023-05-05T00:06:21.648Z,3.21
2023-05-05T00:07:21.708Z,3.23
2023-05-05T00:08:21.738Z,3.23
2023-05-05T00:09:21.752Z,3.24
2023-05-05T00:10:21.834Z,3.16
2023-05-05T00:11:21.906Z,3.13
2023-05-05T00:12:21.909Z,3.19
2023-05-05T00:13:21.961Z,3.22
2023-05-05T00:14:22.072Z,3.19
2023-05-05T00:15:22.065Z,3.28
2023-05-05T00:16:22.187Z,3.22
2023-05-05T00:17:22.200Z,3.21
2023-05-05T00:18:22.210Z,3.21
2023-05-05T00:19:22.228Z,3.23
2023-05-05T00:20:22.300Z,3.25
2023-05-05T00:21:22.376Z,3.17
2023-05-05T00:22:22.491Z,3.18
2023-05-05T00:23:22.457Z,3.27
2023-05-05T00:24:22.486Z,3.18
2023-05-05T00:25:22.553Z,3.18
2023-05-05T00:26:22.627Z,3.17
2023-05-05T00:27:22.674Z,3.15
2023-05-05T00:28:22.731Z,3.13
2023-05-05T00:29:22.731Z,3.14
2023-05-05T00:30:22.780Z,3.16
2023-05-05T00:31:22.919Z,3.19
2023-05-05T00:32:22.936Z,3.14
2023-05-05T00:33:22.952Z,3.09
2023-05-05T00:34:23.022Z,3.11
2023-05-05T00:35:23.052Z,3.13
2023-05-05T00:36:23.121Z,3.08
2023-05-05T00:37:23.133Z,3.10
2023-05-05T00:38:23.172Z,3.09
2023-05-05T00:39:23.231Z,3.09
2023-05-05T00:40:23.307Z,3.09
2023-05-05T00:41:23.327Z,3.13
2023-05-05T00:42:23.390Z,3.12
2023-05-05T00:43:23.421Z,3.11
2023-05-05T00:44:23.481Z,3.14
2023-05-05T00:45:23.538Z,3.14
2023-05-05T00:46:23.662Z,3.06
2023-05-05T00:47:23.640Z,3.14
2023-05-05T00:48:23.673Z,3.04
2023-05-05T00:49:23.790Z,3.09
2023-05-05T00:50:23.778Z,3.11
2023-05-05T00:51:23.817Z,3.09
2023-05-05T00:52:23.899Z,3.08
2023-05-05T00:53:23.953Z,3.09
2023-05-05T00:54:23.992Z,3.09
2023-05-05T00:55:24.036Z,3.08
2023-05-05T00:56:24.091Z,3.02
2023-05-05T00:57:24.492Z,3.03
2023-05-05T00:58:24.202Z,2.97
2023-05-05T00:59:24.222Z,3.07
2023-05-05T01:00:24.241Z,3.05
2023-05-05T01:01:24.332Z,2.97
2023-05-05T01:02:24.344Z,2.99
2023-05-05T01:03:24.483Z,3.02
2023-05-05T01:04:24.458Z,3.02
2023-05-05T01:05:24.503Z,3.06
2023-05-05T01:06:24.943Z,3.03
2023-05-05T01:07:24.570Z,2.95
2023-05-05T01:08:24.649Z,2.94
2023-05-05T01:09:24.674Z,3.00
2023-05-05T01:10:25.031Z,2.99
2023-05-05T01:11:24.810Z,3.01
2023-05-05T01:12:24.818Z,2.95
2023-05-05T01:13:24.912Z,2.94
2023-05-05T01:14:24.928Z,2.99
2023-05-05T01:15:24.954Z,2.97
2023-05-05T01:16:25.109Z,2.94
2023-05-05T01:17:25.094Z,2.98
2023-05-05T01:18:25.129Z,2.88
2023-05-05T01:19:25.195Z,2.95
2023-05-05T01:20:25.236Z,2.90
2023-05-05T01:21:25.271Z,2.96
2023-05-05T01:22:25.337Z,2.98
2023-05-05T01:23:25.376Z,2.90
2023-05-05T01:24:25.448Z,2.98
2023-05-05T01:25:25.472Z,2.90
2023-05-05T01:26:25.542Z,2.96
2023-05-05T01:27:25.971Z,2.88
2023-05-05T01:28:25.646Z,2.89
2023-05-05T01:29:25.737Z,2.92
2023-05-05T01:30:25.749Z,2.91
2023-05-05T01:31:25.802Z,2.94
2023-05-05T01:32:25.914Z,2.90
2023-05-05T01:33:25.885Z,2.91
2023-05-05T01:34:25.933Z,2.93
2023-05-05T01:35:26.002Z,2.95
2023-05-05T01:36:26.057Z,2.88
2023-05-05T01:37:26.101Z,2.85
2023-05-05T01:38:26.121Z,2.87
2023-05-05T01:39:26.179Z,2.84
2023-05-05T01:40:26.217Z,2.86
2023-05-05T01:41:26.278Z,2.78
2023-05-05T01:42:26.323Z,2.83
2023-05-05T01:43:26.384Z,2.88
2023-05-05T01:44:26.432Z,2.84
2023-05-05T01:45:26.481Z,2.83
2023-05-05T01:46:26.521Z,2.83
2023-05-05T01:47:26.943Z,2.84
2023-05-05T01:48:26.671Z,2.88
2023-05-05T01:49:26.675Z,2.85
2023-05-05T01:50:26.742Z,2.87
2023-05-05T01:51:26.800Z,2.83
2023-05-05T01:52:26.848Z,2.90
2023-05-05T01:53:26.904Z,2.81
2023-05-05T01:54:27.003Z,2.80
2023-05-05T01:55:26.998Z,2.86
2023-05-05T01:56:27.073Z,2.84
2023-05-05T01:57:27.128Z,2.74
2023-05-05T01:58:27.152Z,2.86
2023-05-05T01:59:27.247Z,2.81
2023-05-05T02:00:27.292Z,2.81
2023-05-05T02:01:27.403Z,2.76
2023-05-05T02:02:27.488Z,2.80
2023-05-05T02:03:27.546Z,2.79
2023-05-05T02:04:28.451Z,2.73
2023-05-05T02:05:27.535Z,2.75
2023-05-05T02:06:27.610Z,2.77
2023-05-05T02:07:28.018Z,2.75
2023-05-05T02:08:27.753Z,2.76
2023-05-05T02:09:27.765Z,2.79
2023-05-05T02:10:27.836Z,2.76
2023-05-05T02:11:27.854Z,2.78
2023-05-05T02:12:27.946Z,2.78
2023-05-05T02:13:28.037Z,2.71
2023-05-05T02:14:28.032Z,2.76
2023-05-05T02:15:28.091Z,2.74
2023-05-05T02:16:28.177Z,2.75
2023-05-05T02:17:28.205Z,2.68
2023-05-05T02:18:28.266Z,2.74
2023-05-05T02:19:28.277Z,2.74
2023-05-05T02:20:28.347Z,2.79
2023-05-05T02:21:28.396Z,2.68
2023-05-05T02:22:28.468Z,2.73
2023-05-05T02:23:28.504Z,2.70
2023-05-05T02:24:28.564Z,2.68
2023-05-05T02:25:28.591Z,2.71
2023-05-05T02:26:28.658Z,2.75
2023-05-05T02:27:28.715Z,2.67
2023-05-05T02:28:28.784Z,2.72
2023-05-05T02:29:28.818Z,2.68
2023-05-05T02:30:28.893Z,2.72
2023-05-05T02:31:29.049Z,2.67
2023-05-05T02:32:29.014Z,2.66
2023-05-05T02:33:29.020Z,2.61
2023-05-05T02:34:29.069Z,2.66
2023-05-05T02:35:29.126Z,2.66
2023-05-05T02:36:29.189Z,2.67
2023-05-05T02:37:29.240Z,2.64
2023-05-05T02:38:29.300Z,2.65
2023-05-05T02:39:29.362Z,2.58
2023-05-05T02:40:29.408Z,2.70
2023-05-05T02:41:29.396Z,2.70
2023-05-05T02:42:29.393Z,2.63
2023-05-05T02:43:29.397Z,2.67
2023-05-05T02:44:29.386Z,2.66
2023-05-05T02:45:29.344Z,2.65
2023-05-05T02:46:29.373Z,2.66
2023-05-05T02:47:29.356Z,2.57
2023-05-05T02:48:29.361Z,2.59
2023-05-05T02:49:29.373Z,2.63
2023-05-05T02:50:29.406Z,2.63
2023-05-05T02:51:29.480Z,2.59
2023-05-05T02:52:29.520Z,2.65
2023-05-05T02:53:29.591Z,2.59
2023-05-05T02:54:29.665Z,2.59
2023-05-05T02:55:29.700Z,2.59
2023-05-05T02:56:29.767Z,2.55
2023-05-05T02:57:29.837Z,2.60
2023-05-05T02:58:29.882Z,2.55
2023-05-05T02:59:29.929Z,2.54
2023-05-05T03:00:29.994Z,2.58
2023-05-05T03:01:30.089Z,2.50
2023-05-05T03:02:30.190Z,2.55
2023-05-05T03:03:30.264Z,2.59
2023-05-05T03:04:30.236Z,2.57
2023-05-05T03:05:30.293Z,2.52
2023-05-05T03:06:30.351Z,2.54
2023-05-05T03:07:30.404Z,2.60
2023-05-05T03:08:30.502Z,2.52
2023-05-05T03:09:30.543Z,2.47
2023-05-05T03:10:30.597Z,2.53
2023-05-05T03:11:30.668Z,2.52
2023-05-05T03:12:30.743Z,2.52
2023-05-05T03:13:30.779Z,2.52
2023-05-05T03:14:32.831Z,2.50
2023-05-05T03:15:31.044Z,2.44
2023-05-05T03:16:31.098Z,2.46
2023-05-05T03:17:31.192Z,2.49
2023-05-05T03:18:31.260Z,2.50
2023-05-05T03:19:31.281Z,2.51
2023-05-05T03:20:31.338Z,2.49
2023-05-05T03:21:31.396Z,2.41
2023-05-05T03:22:31.478Z,2.46
2023-05-05T03:23:31.547Z,2.52
2023-05-05T03:24:31.592Z,2.48
2023-05-05T03:25:31.638Z,2.49
2023-05-05T03:26:31.699Z,2.45
2023-05-05T03:27:31.758Z,2.44
2023-05-05T03:28:31.827Z,2.45
2023-05-05T03:29:31.879Z,2.48
2023-05-05T03:30:31.950Z,2.42
2023-05-05T03:31:32.070Z,2.47
2023-05-05T03:32:32.097Z,2.41
2023-05-05T03:33:32.190Z,2.43
2023-05-05T03:34:32.285Z,2.47
2023-05-05T03:35:32.263Z,2.47
2023-05-05T03:36:32.346Z,2.43
2023-05-05T03:37:32.374Z,2.45
2023-05-05T03:38:32.441Z,2.46
2023-05-05T03:39:32.507Z,2.42
2023-05-05T03:40:42.971Z,2.45
2023-05-05T03:41:33.552Z,2.46
2023-05-05T03:42:32.568Z,2.47
2023-05-05T03:43:32.542Z,2.43
2023-05-05T03:44:32.540Z,2.45
2023-05-05T03:45:32.620Z,2.46
2023-05-05T03:46:32.588Z,2.43
2023-05-05T03:47:32.566Z,2.40
2023-05-05T03:48:32.510Z,2.39
2023-05-05T03:49:32.577Z,2.40
2023-05-05T03:50:32.622Z,2.37
2023-05-05T03:51:32.705Z,2.47
2023-05-05T03:52:32.760Z,2.45
2023-05-05T03:53:32.817Z,2.38
2023-05-05T03:54:32.887Z,2.38
2023-05-05T03:55:32.968Z,2.39
2023-05-05T03:56:33.026Z,2.37
2023-05-05T03:57:33.050Z,2.35
2023-05-05T03:58:33.143Z,2.36
2023-05-05T03:59:33.166Z,2.37
2023-05-05T04:00:33.237Z,2.38
2023-05-05T04:01:33.461Z,2.38
2023-05-05T04:02:33.388Z,2.29
2023-05-05T04:03:33.604Z,2.37
2023-05-05T04:04:33.525Z,2.34
2023-05-05T04:05:33.580Z,2.35
2023-05-05T04:06:33.597Z,2.29
2023-05-05T04:07:33.715Z,2.35
2023-05-05T04:08:33.724Z,2.31
2023-05-05T04:09:33.792Z,2.34
2023-05-05T04:10:33.881Z,2.32
2023-05-05T04:11:33.939Z,2.33
2023-05-05T04:12:34.023Z,2.36
2023-05-05T04:13:34.073Z,2.28
2023-05-05T04:14:34.118Z,2.33
2023-05-05T04:15:34.149Z,2.28
2023-05-05T04:16:34.244Z,2.28
2023-05-05T04:17:34.292Z,2.35
2023-05-05T04:18:34.334Z,2.30
2023-05-05T04:19:34.407Z,2.32
2023-05-05T04:20:34.456Z,2.34
2023-05-05T04:21:34.529Z,2.30
2023-05-05T04:22:34.624Z,2.30
2023-05-05T04:23:34.670Z,2.29
2023-05-05T04:24:34.743Z,2.31
2023-05-05T04:25:34.823Z,2.31
2023-05-05T04:26:34.831Z,2.30
2023-05-05T04:27:34.916Z,2.27
2023-05-05T04:28:34.963Z,2.26
2023-05-05T04:29:35.023Z,2.29
2023-05-05T04:30:35.097Z,2.28
2023-05-05T04:31:35.173Z,2.28
2023-05-05T04:32:35.290Z,2.23
2023-05-05T04:33:35.272Z,2.24
2023-05-05T04:34:35.339Z,2.23
2023-05-05T04:35:35.399Z,2.27
2023-05-05T04:36:35.442Z,2.25
2023-05-05T04:37:35.542Z,2.25
2023-05-05T04:38:35.601Z,2.29
2023-05-05T04:39:35.629Z,2.23
2023-05-05T04:40:35.703Z,2.22
2023-05-05T04:41:35.783Z,2.21
2023-05-05T04:42:35.824Z,2.24
2023-05-05T04:43:35.894Z,2.26
2023-05-05T04:44:35.938Z,2.28
2023-05-05T04:45:36.008Z,2.23
2023-05-05T04:46:36.173Z,2.26
2023-05-05T04:47:36.169Z,2.23
2023-05-05T04:48:36.205Z,2.27
2023-05-05T04:49:36.249Z,2.20
2023-05-05T04:50:36.356Z,2.20
2023-05-05T04:51:36.374Z,2.23
2023-05-05T04:52:37.018Z,2.19
2023-05-05T04:53:36.508Z,2.19
2023-05-05T04:54:36.579Z,2.17
2023-05-05T04:55:36.633Z,2.21
2023-05-05T04:56:36.675Z,2.20
2023-05-05T04:57:36.737Z,2.15
2023-05-05T04:58:36.853Z,2.15
2023-05-05T04:59:36.877Z,2.13
2023-05-05T05:00:36.947Z,2.14
2023-05-05T05:01:38.623Z,2.18
2023-05-05T05:02:37.139Z,2.10
2023-05-05T05:03:37.335Z,2.13
2023-05-05T05:04:37.222Z,2.14
2023-05-05T05:05:37.308Z,2.12
2023-05-05T05:06:37.333Z,2.11
2023-05-05T05:07:37.400Z,2.07
2023-05-05T05:08:37.443Z,2.07
2023-05-05T05:09:37.546Z,2.05
2023-05-05T05:10:37.539Z,2.06
2023-05-05T05:11:37.610Z,2.10
2023-05-05T05:12:37.737Z,2.05
2023-05-05T05:13:37.735Z,2.03
2023-05-05T05:14:37.775Z,2.03
2023-05-05T05:15:37.891Z,2.02
2023-05-05T05:16:37.945Z,1.98
2023-05-05T05:17:38.024Z,1.99
2023-05-05T05:18:38.013Z,1.99
2023-05-05T05:19:38.069Z,2.00
2023-05-05T05:20:38.093Z,1.97
2023-05-05T05:21:38.129Z,1.98
2023-05-05T05:22:38.181Z,1.95
2023-05-05T05:23:38.263Z,1.94
2023-05-05T05:24:38.278Z,1.94
2023-05-05T05:25:38.490Z,1.97
2023-05-05T05:26:38.387Z,1.88
2023-05-05T05:27:38.430Z,1.93
2023-05-05T05:28:38.492Z,1.91
2023-05-05T05:29:38.588Z,1.90
2023-05-05T05:30:38.593Z,1.89
2023-05-05T05:31:38.617Z,1.90
2023-05-05T05:32:39.643Z,1.91
2023-05-05T05:33:38.700Z,1.91
2023-05-05T05:34:38.741Z,1.98
2023-05-05T05:35:38.829Z,1.98
2023-05-05T05:36:38.820Z,2.02
2023-05-05T05:37:39.597Z,2.00
2023-05-05T05:38:38.885Z,2.01
2023-05-05T05:39:40.173Z,2.01
2023-05-05T05:40:38.941Z,2.08
2023-05-05T05:41:39.051Z,2.16
2023-05-05T05:42:39.052Z,2.13
2023-05-05T05:43:39.030Z,2.17
2023-05-05T05:44:39.159Z,2.25
2023-05-05T05:45:39.244Z,2.33
2023-05-05T05:46:39.295Z,2.42
2023-05-05T05:47:39.221Z,2.34
2023-05-05T05:48:39.197Z,2.30
2023-05-05T05:49:39.209Z,2.35
2023-05-05T05:50:39.261Z,2.27
2023-05-05T05:51:39.276Z,2.26
2023-05-05T05:52:39.277Z,2.10
2023-05-05T05:53:39.316Z,2.12
2023-05-05T05:54:39.388Z,2.11
2023-05-05T05:55:39.368Z,2.05
2023-05-05T05:56:39.385Z,2.02
2023-05-05T05:57:39.386Z,2.04
2023-05-05T05:58:39.405Z,1.98
2023-05-05T05:59:39.471Z,1.94
2023-05-05T06:00:39.460Z,1.89
2023-05-05T06:01:39.460Z,1.95
2023-05-05T06:02:39.761Z,1.92
2023-05-05T06:03:39.735Z,1.92
2023-05-05T06:04:39.519Z,1.93
2023-05-05T06:05:39.543Z,1.95
2023-05-05T06:06:39.616Z,1.97
2023-05-05T06:07:39.567Z,2.00
2023-05-05T06:08:40.099Z,1.94
2023-05-05T06:09:39.618Z,1.91
2023-05-05T06:10:39.822Z,1.95
2023-05-05T06:11:39.600Z,1.92
2023-05-05T06:12:39.632Z,1.96
2023-05-05T06:13:39.591Z,1.91
2023-05-05T06:14:39.603Z,1.87
2023-05-05T06:15:39.648Z,1.87
2023-05-05T06:16:39.639Z,1.87
2023-05-05T06:17:39.635Z,1.85
2023-05-05T06:18:40.247Z,1.84
2023-05-05T06:19:39.626Z,1.81
2023-05-05T06:20:39.601Z,1.81
2023-05-05T06:21:40.622Z,1.74
2023-05-05T06:22:39.623Z,1.78
2023-05-05T06:23:39.628Z,1.79
2023-05-05T06:24:39.627Z,1.71
2023-05-05T06:25:39.665Z,1.66
2023-05-05T06:26:40.595Z,1.49
2023-05-05T06:27:39.660Z,1.49
2023-05-05T06:28:40.077Z,1.58
2023-05-05T06:29:39.583Z,1.51
2023-05-05T06:30:39.596Z,1.42
2023-05-05T06:31:39.823Z,1.54
2023-05-05T06:32:39.673Z,1.41
2023-05-05T06:33:39.660Z,1.31
2023-05-05T06:34:39.686Z,1.32
2023-05-05T06:35:39.634Z,1.34
2023-05-05T06:36:39.694Z,1.45
2023-05-05T06:37:39.669Z,1.52
2023-05-05T06:38:40.102Z,1.55
2023-05-05T06:39:39.665Z,1.56
2023-05-05T06:40:39.673Z,1.55
2023-05-05T06:41:39.799Z,1.40
2023-05-05T06:42:39.640Z,1.43
2023-05-05T06:43:39.655Z,1.43
2023-05-05T06:44:39.694Z,1.35
2023-05-05T06:45:39.691Z,1.46
2023-05-05T06:46:39.702Z,1.34
2023-05-05T06:47:40.658Z,1.32
2023-05-05T06:48:39.675Z,1.34
2023-05-05T06:49:39.806Z,1.25
2023-05-05T06:50:39.726Z,1.16
2023-05-05T06:51:42.761Z,1.09
2023-05-05T06:52:39.694Z,1.01
2023-05-05T06:53:39.726Z,0.90
2023-05-05T06:54:39.698Z,0.85
2023-05-05T06:55:39.716Z,0.87
2023-05-05T06:56:39.740Z,0.85
2023-05-05T06:57:39.657Z,0.76
2023-05-05T06:58:39.672Z,0.74
2023-05-05T06:59:39.683Z,0.78
2023-05-05T07:00:39.693Z,0.80
2023-05-05T07:01:39.620Z,0.84
2023-05-05T07:02:39.651Z,0.82
2023-05-05T07:03:39.658Z,0.74
2023-05-05T07:04:39.637Z,0.73
2023-05-05T07:05:39.604Z,0.74
2023-05-05T07:06:39.615Z,0.71
2023-05-05T07:07:39.668Z,0.67
2023-05-05T07:08:39.664Z,0.67
2023-05-05T07:09:39.575Z,0.70
2023-05-05T07:10:39.575Z,0.70
2023-05-05T07:11:39.620Z,0.68
2023-05-05T07:12:39.634Z,0.63
2023-05-05T07:13:39.637Z,0.64
2023-05-05T07:14:39.556Z,0.63
2023-05-05T07:15:39.522Z,0.67
2023-05-05T07:16:39.639Z,0.67
2023-05-05T07:17:39.534Z,0.68
2023-05-05T07:18:39.517Z,0.64
2023-05-05T07:19:39.601Z,0.64
2023-05-05T07:20:39.499Z,0.62
2023-05-05T07:21:39.617Z,0.63
2023-05-05T07:22:39.505Z,0.63
2023-05-05T07:23:39.498Z,0.56
2023-05-05T07:24:39.482Z,0.56
2023-05-05T07:25:39.460Z,0.57
2023-05-05T07:26:39.528Z,0.55
2023-05-05T07:27:39.534Z,0.57
2023-05-05T07:28:39.633Z,0.55
2023-05-05T07:29:39.444Z,0.55
2023-05-05T07:30:39.464Z,0.54
2023-05-05T07:31:39.456Z,0.57
2023-05-05T07:32:39.488Z,0.53
2023-05-05T07:33:39.629Z,0.56
2023-05-05T07:34:39.425Z,0.67
2023-05-05T07:35:39.445Z,0.71
2023-05-05T07:36:39.431Z,0.75
2023-05-05T07:37:39.418Z,0.78
2023-05-05T07:38:39.536Z,0.60
2023-05-05T07:39:39.398Z,0.63
2023-05-05T07:40:39.374Z,0.67
2023-05-05T07:41:39.391Z,0.63
2023-05-05T07:42:39.363Z,0.63
2023-05-05T07:43:39.681Z,0.62
2023-05-05T07:44:39.334Z,0.60
2023-05-05T07:45:39.362Z,0.61
2023-05-05T07:46:39.342Z,0.62
2023-05-05T07:47:39.443Z,0.58
2023-05-05T07:48:39.329Z,0.56
2023-05-05T07:49:39.382Z,0.52
2023-05-05T07:50:39.368Z,0.55
2023-05-05T07:51:39.309Z,0.59
2023-05-05T07:53:39.320Z,0.60
2023-05-05T07:54:39.265Z,0.59
2023-05-05T07:55:39.295Z,0.60
2023-05-05T07:56:39.300Z,0.55
2023-05-05T07:57:39.333Z,0.54
2023-05-05T07:58:39.242Z,0.58
2023-05-05T07:59:39.311Z,0.57
2023-05-05T08:00:39.282Z,0.58
2023-05-05T08:01:39.244Z,0.59
2023-05-05T08:02:39.348Z,0.57
2023-05-05T08:03:39.452Z,0.58
2023-05-05T08:04:39.648Z,0.53
2023-05-05T08:05:39.310Z,0.55
2023-05-05T08:06:39.354Z,0.53
2023-05-05T08:07:39.478Z,0.51
2023-05-05T08:08:39.420Z,0.54
2023-05-05T08:09:39.500Z,0.53
2023-05-05T08:10:39.562Z,0.57
2023-05-05T08:11:39.594Z,0.53
2023-05-05T08:12:39.680Z,0.54
2023-05-05T08:13:39.671Z,0.59
2023-05-05T08:14:39.722Z,0.61
2023-05-05T08:15:39.908Z,0.57
2023-05-05T08:16:39.786Z,0.62
2023-05-05T08:17:39.844Z,0.66
2023-05-05T08:18:39.888Z,0.61
2023-05-05T08:19:39.929Z,0.57
2023-05-05T08:20:40.116Z,0.55
2023-05-05T08:21:40.002Z,0.57
2023-05-05T08:22:40.054Z,0.59
2023-05-05T08:23:40.087Z,0.62
2023-05-05T08:24:40.163Z,0.61
2023-05-05T08:25:40.184Z,0.67
2023-05-05T08:26:40.198Z,0.74
2023-05-05T08:27:40.220Z,0.68
2023-05-05T08:28:40.240Z,0.63
2023-05-05T08:29:40.313Z,0.58
2023-05-05T08:30:40.370Z,0.50
2023-05-05T08:31:40.520Z,0.53
2023-05-05T08:32:40.497Z,0.59
2023-05-05T08:33:40.487Z,0.60
2023-05-05T08:34:40.623Z,0.56
2023-05-05T08:35:40.580Z,0.53
2023-05-05T08:36:40.631Z,0.51
2023-05-05T08:37:40.667Z,0.50
2023-05-05T08:38:40.748Z,0.49
2023-05-05T08:39:40.843Z,0.52
2023-05-05T08:40:40.873Z,0.62
2023-05-05T08:41:40.892Z,0.65
2023-05-05T08:42:40.946Z,0.66
2023-05-05T08:43:40.989Z,0.72
2023-05-05T08:44:41.270Z,0.62
2023-05-05T08:45:41.100Z,0.60
2023-05-05T08:46:41.320Z,0.52
2023-05-05T08:47:41.269Z,0.59
2023-05-05T08:48:41.252Z,0.58
2023-05-05T08:49:41.336Z,0.65
2023-05-05T08:50:41.359Z,0.57
2023-05-05T08:51:41.397Z,0.54
2023-05-05T08:52:41.596Z,0.57
2023-05-05T08:53:41.566Z,0.55
2023-05-05T08:54:41.580Z,0.53
2023-05-05T08:55:41.584Z,0.49
2023-05-05T08:56:41.649Z,0.52
2023-05-05T08:57:41.674Z,0.54
2023-05-05T08:58:41.730Z,0.57
2023-05-05T08:59:41.819Z,0.52
2023-05-05T09:00:41.806Z,0.50
2023-05-05T09:01:41.893Z,0.50
2023-05-05T09:02:41.962Z,0.50
2023-05-05T09:03:42.292Z,0.50
2023-05-05T09:04:41.947Z,0.51
2023-05-05T09:05:41.995Z,0.51
2023-05-05T09:06:42.006Z,0.50
2023-05-05T09:07:42.036Z,0.53
2023-05-05T09:08:42.083Z,0.56
2023-05-05T09:09:42.138Z,0.60
2023-05-05T09:10:42.203Z,0.57
2023-05-05T09:11:42.177Z,0.56
2023-05-05T09:12:42.291Z,0.55
2023-05-05T09:13:42.243Z,0.64
2023-05-05T09:14:42.285Z,0.75
2023-05-05T09:15:42.301Z,0.63
2023-05-05T09:16:42.350Z,0.67
2023-05-05T09:17:42.428Z,0.62
2023-05-05T09:18:42.398Z,0.58
2023-05-05T09:19:42.465Z,0.57
2023-05-05T09:20:42.435Z,0.63
2023-05-05T09:21:42.466Z,0.67
2023-05-05T09:22:42.555Z,0.66
2023-05-05T09:23:42.528Z,0.73
2023-05-05T09:24:42.562Z,0.73
2023-05-05T09:25:42.593Z,0.76
2023-05-05T09:26:42.595Z,0.78
2023-05-05T09:27:42.636Z,0.69
2023-05-05T09:28:43.557Z,0.69
2023-05-05T09:29:43.173Z,0.79
2023-05-05T09:30:42.731Z,0.81
2023-05-05T09:31:42.750Z,0.94
2023-05-05T09:32:42.870Z,1.07
2023-05-05T09:33:42.840Z,1.08
2023-05-05T09:34:42.863Z,0.86
2023-05-05T09:35:42.902Z,0.60
2023-05-05T09:36:42.876Z,0.34
2023-05-05T09:37:42.943Z,0.34
2023-05-05T09:38:42.936Z,0.34
2023-05-05T09:39:43.680Z,0.34
2023-05-05T09:40:42.998Z,0.34
2023-05-05T09:41:43.053Z,0.74
2023-05-05T09:42:43.094Z,1.14
2023-05-05T09:43:43.074Z,0.93
2023-05-05T09:44:43.187Z,0.58
2023-05-05T09:45:43.149Z,0.65
2023-05-05T09:46:43.300Z,0.79
2023-05-05T09:47:43.266Z,0.54
2023-05-05T09:48:43.301Z,0.92
2023-05-05T09:49:43.281Z,0.66
2023-05-05T09:50:43.336Z,0.49
2023-05-05T09:51:43.448Z,0.46
2023-05-05T09:52:43.379Z,0.41
2023-05-05T09:53:43.410Z,0.56
2023-05-05T09:54:43.495Z,0.34
2023-05-05T09:55:43.613Z,0.39
2023-05-05T09:56:43.555Z,0.55
2023-05-05T09:57:43.625Z,0.71
2023-05-05T09:58:43.663Z,0.94
2023-05-05T09:59:43.675Z,1.21
2023-05-05T10:00:43.719Z,0.79
2023-05-05T10:01:43.885Z,0.52
2023-05-05T10:02:43.829Z,0.67
2023-05-05T10:03:43.849Z,0.48
2023-05-05T10:04:44.008Z,0.56
2023-05-05T10:05:43.943Z,0.50
2023-05-05T10:06:44.164Z,0.73
2023-05-05T10:07:44.075Z,0.89
2023-05-05T10:08:44.096Z,0.60
2023-05-05T10:09:44.123Z,0.71
2023-05-05T10:10:44.162Z,1.18
2023-05-05T10:11:44.239Z,1.03
2023-05-05T10:12:44.284Z,0.79
2023-05-05T10:13:44.255Z,0.64
2023-05-05T10:14:44.297Z,0.54
2023-05-05T10:15:44.403Z,0.50
2023-05-05T10:16:44.444Z,0.81
2023-05-05T10:17:57.896Z,1.28
2023-05-05T10:18:45.436Z,1.28
2023-05-05T10:19:44.429Z,1.34
2023-05-05T10:20:44.432Z,1.47
2023-05-05T10:21:44.446Z,1.69
2023-05-05T10:22:44.454Z,2.18
2023-05-05T10:23:44.420Z,2.46
2023-05-05T10:24:44.498Z,2.29
2023-05-05T10:25:44.415Z,2.39
2023-05-05T10:26:44.382Z,2.65
2023-05-05T10:27:44.419Z,1.28
2023-05-05T10:28:44.415Z,1.11
2023-05-05T10:29:44.362Z,1.44
2023-05-05T10:30:44.452Z,1.30
2023-05-05T10:31:44.378Z,1.41
2023-05-05T10:33:44.411Z,1.98
2023-05-05T10:34:44.480Z,2.38
2023-05-05T10:35:44.368Z,2.67
2023-05-05T10:36:44.351Z,3.00
2023-05-05T10:37:44.386Z,3.20
2023-05-05T10:38:44.348Z,2.59
2023-05-05T10:39:44.414Z,2.40
2023-05-05T10:40:44.374Z,2.45
2023-05-05T10:41:44.332Z,2.51
2023-05-05T10:42:44.473Z,2.74
2023-05-05T10:43:44.681Z,2.81
2023-05-05T10:44:45.189Z,2.84
2023-05-05T10:45:44.353Z,3.19
2023-05-05T10:46:45.244Z,2.65
2023-05-05T10:47:44.357Z,2.73
2023-05-05T10:48:44.354Z,2.43
2023-05-05T10:49:44.700Z,2.12
2023-05-05T10:50:44.278Z,1.72
2023-05-05T10:51:44.278Z,1.40
2023-05-05T10:52:44.266Z,1.61
2023-05-05T10:53:44.359Z,2.02
2023-05-05T10:54:44.260Z,3.22
2023-05-05T10:55:44.301Z,4.86
2023-05-05T10:56:44.278Z,5.82
2023-05-05T10:57:44.243Z,7.82
2023-05-05T10:58:59.038Z,9.23
2023-05-05T10:59:45.273Z,9.28
2023-05-05T11:00:44.263Z,9.71
2023-05-05T11:01:44.212Z,10.91
2023-05-05T11:02:44.279Z,13.50
2023-05-05T11:03:44.242Z,17.99
2023-05-05T11:04:44.211Z,21.26
2023-05-05T11:05:45.211Z,22.80
2023-05-05T11:06:44.186Z,26.10
2023-05-05T11:07:44.209Z,30.73
2023-05-05T11:08:44.195Z,32.88
2023-05-05T11:09:44.190Z,36.76
2023-05-05T11:10:44.166Z,39.81
2023-05-05T11:11:44.211Z,43.88
2023-05-05T11:12:44.725Z,47.61
2023-05-05T11:13:44.179Z,51.42
2023-05-05T11:14:44.181Z,55.26
2023-05-05T11:15:44.146Z,60.58
2023-05-05T11:16:44.172Z,60.29
2023-05-05T11:17:44.139Z,64.70
2023-05-05T11:18:44.124Z,65.72
2023-05-05T11:19:44.174Z,66.55
2023-05-05T11:20:44.210Z,68.36
2023-05-05T11:21:44.202Z,67.02
2023-05-05T11:22:44.205Z,62.45
2023-05-05T11:23:45.231Z,62.65
2023-05-05T11:24:44.236Z,63.96
2023-05-05T11:25:45.188Z,65.45
2023-05-05T11:26:44.300Z,67.85
2023-05-05T11:27:44.418Z,67.02
2023-05-05T11:28:44.352Z,67.76
2023-05-05T11:29:44.371Z,70.45
2023-05-05T11:30:45.245Z,70.48
2023-05-05T11:31:44.398Z,71.98
2023-05-05T11:32:44.467Z,74.03
2023-05-05T11:33:44.473Z,74.64
2023-05-05T11:34:44.486Z,76.20
2023-05-05T11:35:44.514Z,76.21
2023-05-05T11:36:44.527Z,77.05
2023-05-05T11:37:44.594Z,77.58
2023-05-05T11:38:44.668Z,80.07
2023-05-05T11:39:44.645Z,79.65
2023-05-05T11:40:44.665Z,80.54
2023-05-05T11:41:44.693Z,81.16
2023-05-05T11:42:44.728Z,82.37
2023-05-05T11:43:44.824Z,81.41
2023-05-05T11:44:44.776Z,83.32
2023-05-05T11:45:44.800Z,83.54
2023-05-05T11:46:44.923Z,82.08
2023-05-05T11:47:44.924Z,84.02
2023-05-05T11:48:44.926Z,84.71
2023-05-05T11:49:44.953Z,83.71
2023-05-05T11:50:45.019Z,84.94
2023-05-05T11:51:45.016Z,87.15
2023-05-05T11:52:45.085Z,85.89
2023-05-05T11:53:45.121Z,87.65
2023-05-05T11:54:45.144Z,86.07
2023-05-05T11:55:45.206Z,88.69
2023-05-05T11:56:45.204Z,85.97
2023-05-05T11:57:45.246Z,89.94
2023-05-05T11:58:45.298Z,87.49
2023-05-05T11:59:45.806Z,88.45
2023-05-05T12:00:45.349Z,86.97
2023-05-05T12:01:45.394Z,88.85
2023-05-05T12:02:45.511Z,90.53
2023-05-05T12:03:45.960Z,88.53
2023-05-05T12:04:45.563Z,88.83
2023-05-05T12:05:45.640Z,89.68
2023-05-05T12:06:45.617Z,89.90
2023-05-05T12:07:45.635Z,90.49
2023-05-05T12:08:45.694Z,89.74
2023-05-05T12:09:45.807Z,88.70
2023-05-05T12:10:45.767Z,89.46
2023-05-05T12:11:45.839Z,91.18
2023-05-05T12:12:45.870Z,90.34
2023-05-05T12:13:45.940Z,89.90
2023-05-05T12:14:45.958Z,91.40
2023-05-05T12:15:45.997Z,89.43
2023-05-05T12:16:46.030Z,88.84
2023-05-05T12:17:46.241Z,89.62
2023-05-05T12:18:46.141Z,90.48
2023-05-05T12:19:46.175Z,89.44
2023-05-05T12:20:46.177Z,87.79
2023-05-05T12:21:46.226Z,89.37
2023-05-05T12:22:46.289Z,88.16
2023-05-05T12:23:46.340Z,88.35
2023-05-05T12:24:46.372Z,89.35
2023-05-05T12:25:46.369Z,88.61
2023-05-05T12:26:46.403Z,88.31
2023-05-05T12:27:46.489Z,87.21
2023-05-05T12:28:46.587Z,87.03
2023-05-05T12:29:46.542Z,86.59
2023-05-05T12:30:46.620Z,86.31
2023-05-05T12:31:46.759Z,87.35
2023-05-05T12:32:46.751Z,87.17
2023-05-05T12:33:46.698Z,84.70
2023-05-05T12:34:46.721Z,87.07
2023-05-05T12:35:46.786Z,85.15
2023-05-05T12:36:46.813Z,83.56
2023-05-05T12:37:46.867Z,83.02
2023-05-05T12:38:46.918Z,80.61
2023-05-05T12:39:47.095Z,82.37
2023-05-05T12:40:47.104Z,82.01
2023-05-05T12:41:47.028Z,79.97
2023-05-05T12:42:47.061Z,81.17
2023-05-05T12:43:47.169Z,80.19
2023-05-05T12:44:47.164Z,79.58
2023-05-05T12:45:47.238Z,78.32
2023-05-05T12:46:47.243Z,77.70
2023-05-05T12:47:47.337Z,77.25
2023-05-05T12:48:48.470Z,76.71
2023-05-05T12:49:47.405Z,75.59
2023-05-05T12:50:47.412Z,75.54
2023-05-05T12:51:47.465Z,75.43
2023-05-05T12:52:47.491Z,75.29
2023-05-05T12:53:47.530Z,74.19
2023-05-05T12:54:47.601Z,72.09
2023-05-05T12:55:47.670Z,71.51
2023-05-05T12:56:47.666Z,70.16
2023-05-05T12:57:47.718Z,69.67
2023-05-05T12:58:47.774Z,69.45
2023-05-05T12:59:47.796Z,68.30
2023-05-05T13:00:47.873Z,67.39
2023-05-05T13:01:47.993Z,67.66
2023-05-05T13:02:48.042Z,68.68
2023-05-05T13:03:48.003Z,66.94
2023-05-05T13:04:48.037Z,66.20
2023-05-05T13:05:48.076Z,65.95
2023-05-05T13:06:48.155Z,64.56
2023-05-05T13:07:48.155Z,65.46
2023-05-05T13:08:48.225Z,65.92
2023-05-05T13:09:48.270Z,65.79
2023-05-05T13:10:48.313Z,64.79
2023-05-05T13:11:48.368Z,65.13
2023-05-05T13:12:48.406Z,64.36
2023-05-05T13:13:48.441Z,64.20
2023-05-05T13:14:48.512Z,63.61
2023-05-05T13:15:48.553Z,64.32